sensor_id;sensor_type;location;lat;lon;timestamp;pressure;altitude;pressure_sealevel;temperature;humidity
65376;BME280;51976;47.332;9.404;2022-09-29T00:00:23;91407.34;;;19.05;47.02
65376;BME280;51976;47.332;9.404;2022-09-29T00:02:48;91394.84;;;19.04;46.75
65376;BME280;51976;47.332;9.404;2022-09-29T00:05:13;91398.00;;;19.06;47.08
65376;BME280;51976;47.332;9.404;2022-09-29T00:07:39;91394.47;;;19.06;46.92
65376;BME280;51976;47.332;9.404;2022-09-29T00:10:04;91391.75;;;19.06;46.67
65376;BME280;51976;47.332;9.404;2022-09-29T00:12:30;91385.84;;;19.04;46.63
65376;BME280;51976;47.332;9.404;2022-09-29T00:14:55;91387.81;;;19.03;46.85
65376;BME280;51976;47.332;9.404;2022-09-29T00:17:21;91392.91;;;19.05;46.96
65376;BME280;51976;47.332;9.404;2022-09-29T00:19:46;91387.81;;;19.03;46.87
65376;BME280;51976;47.332;9.404;2022-09-29T00:22:11;91385.50;;;19.05;46.78
65376;BME280;51976;47.332;9.404;2022-09-29T00:24:37;91379.97;;;19.02;46.90
65376;BME280;51976;47.332;9.404;2022-09-29T00:27:02;91383.88;;;19.01;46.98
65376;BME280;51976;47.332;9.404;2022-09-29T00:29:28;91368.69;;;19.03;46.71
65376;BME280;51976;47.332;9.404;2022-09-29T00:31:53;91374.16;;;19.03;46.89
65376;BME280;51976;47.332;9.404;2022-09-29T00:34:18;91373.34;;;19.03;46.77
65376;BME280;51976;47.332;9.404;2022-09-29T00:36:44;91367.91;;;19.03;46.73
65376;BME280;51976;47.332;9.404;2022-09-29T00:39:10;91368.25;;;19.01;46.63
65376;BME280;51976;47.332;9.404;2022-09-29T00:41:37;91375.31;;;19.02;46.84
65376;BME280;51976;47.332;9.404;2022-09-29T00:47:00;91361.66;;;19.02;46.86
65376;BME280;51976;47.332;9.404;2022-09-29T00:49:42;91362.00;;;19.01;46.76
65376;BME280;51976;47.332;9.404;2022-09-29T00:52:18;91355.75;;;19.00;46.79
65376;BME280;51976;47.332;9.404;2022-09-29T00:54:49;91357.34;;;19.01;46.85
65376;BME280;51976;47.332;9.404;2022-09-29T00:57:19;91351.88;;;19.01;46.70
65376;BME280;51976;47.332;9.404;2022-09-29T00:59:53;91349.53;;;19.00;46.95
65376;BME280;51976;47.332;9.404;2022-09-29T01:02:21;91347.94;;;18.99;46.96
65376;BME280;51976;47.332;9.404;2022-09-29T01:04:49;91336.22;;;18.98;46.83
65376;BME280;51976;47.332;9.404;2022-09-29T01:07:17;91337.81;;;18.99;46.94
65376;BME280;51976;47.332;9.404;2022-09-29T01:09:44;91340.91;;;18.98;46.67
65376;BME280;51976;47.332;9.404;2022-09-29T01:12:10;91346.38;;;18.98;46.84
65376;BME280;51976;47.332;9.404;2022-09-29T01:14:37;91347.09;;;18.94;47.00
65376;BME280;51976;47.332;9.404;2022-09-29T01:17:03;91344.00;;;18.96;46.78
65376;BME280;51976;47.332;9.404;2022-09-29T01:20:06;91340.50;;;18.96;46.54
65376;BME280;51976;47.332;9.404;2022-09-29T01:23:08;91329.16;;;18.93;46.66
65376;BME280;51976;47.332;9.404;2022-09-29T01:26:08;91340.06;;;18.93;46.90
65376;BME280;51976;47.332;9.404;2022-09-29T01:28:58;91335.41;;;18.94;46.89
65376;BME280;51976;47.332;9.404;2022-09-29T01:31:35;91322.91;;;18.93;46.89
65376;BME280;51976;47.332;9.404;2022-09-29T01:34:18;91329.94;;;18.94;46.61
65376;BME280;51976;47.332;9.404;2022-09-29T01:37:10;91330.72;;;18.94;46.63
65376;BME280;51976;47.332;9.404;2022-09-29T01:39:40;91317.84;;;18.95;46.84
65376;BME280;51976;47.332;9.404;2022-09-29T01:42:12;91323.69;;;18.93;46.70
65376;BME280;51976;47.332;9.404;2022-09-29T01:44:51;91312.75;;;18.93;46.95
65376;BME280;51976;47.332;9.404;2022-09-29T01:47:36;91300.69;;;18.94;47.00
65376;BME280;51976;47.332;9.404;2022-09-29T01:50:07;91301.84;;;18.93;46.66
65376;BME280;51976;47.332;9.404;2022-09-29T01:52:40;91303.78;;;18.93;46.65
65376;BME280;51976;47.332;9.404;2022-09-29T01:55:14;91291.28;;;18.92;46.54
65376;BME280;51976;47.332;9.404;2022-09-29T01:57:46;91296.00;;;18.95;46.79
65376;BME280;51976;47.332;9.404;2022-09-29T02:00:16;91302.63;;;18.94;46.95
65376;BME280;51976;47.332;9.404;2022-09-29T02:02:46;91315.91;;;18.96;46.53
65376;BME280;51976;47.332;9.404;2022-09-29T02:05:20;91315.50;;;18.93;46.79
65376;BME280;51976;47.332;9.404;2022-09-29T02:07:47;91315.50;;;18.93;46.83
65376;BME280;51976;47.332;9.404;2022-09-29T02:10:21;91308.47;;;18.92;46.67
65376;BME280;51976;47.332;9.404;2022-09-29T02:12:49;91303.38;;;18.91;46.63
65376;BME280;51976;47.332;9.404;2022-09-29T02:15:21;91311.19;;;18.92;46.77
65376;BME280;51976;47.332;9.404;2022-09-29T02:17:51;91311.19;;;18.92;46.58
65376;BME280;51976;47.332;9.404;2022-09-29T02:20:18;91304.16;;;18.91;46.80
65376;BME280;51976;47.332;9.404;2022-09-29T02:22:45;91307.25;;;18.90;46.79
65376;BME280;51976;47.332;9.404;2022-09-29T02:25:12;91300.63;;;18.91;46.53
65376;BME280;51976;47.332;9.404;2022-09-29T02:27:39;91296.75;;;18.92;46.66
65376;BME280;51976;47.332;9.404;2022-09-29T02:30:05;91291.66;;;18.90;46.65
65376;BME280;51976;47.332;9.404;2022-09-29T02:32:32;91290.88;;;18.90;46.77
65376;BME280;51976;47.332;9.404;2022-09-29T02:34:59;91288.13;;;18.90;46.82
65376;BME280;51976;47.332;9.404;2022-09-29T02:37:52;91293.22;;;18.91;46.65
65376;BME280;51976;47.332;9.404;2022-09-29T02:40:46;91292.44;;;18.91;46.60
65376;BME280;51976;47.332;9.404;2022-09-29T02:43:37;91288.91;;;18.90;46.80
65376;BME280;51976;47.332;9.404;2022-09-29T02:46:27;91286.94;;;18.87;46.61
65376;BME280;51976;47.332;9.404;2022-09-29T02:49:31;91279.16;;;18.89;46.91
65376;BME280;51976;47.332;9.404;2022-09-29T02:52:04;91278.38;;;18.89;46.71
65376;BME280;51976;47.332;9.404;2022-09-29T02:54:53;91285.41;;;18.90;46.72
65376;BME280;51976;47.332;9.404;2022-09-29T02:57:41;91279.94;;;18.90;46.55
65376;BME280;51976;47.332;9.404;2022-09-29T03:00:12;91288.91;;;18.90;46.54
65376;BME280;51976;47.332;9.404;2022-09-29T03:02:41;91278.38;;;18.89;46.62
65376;BME280;51976;47.332;9.404;2022-09-29T03:05:09;91282.69;;;18.90;46.75
65376;BME280;51976;47.332;9.404;2022-09-29T03:07:37;91284.25;;;18.91;46.58
65376;BME280;51976;47.332;9.404;2022-09-29T03:10:03;91282.25;;;18.88;46.75
65376;BME280;51976;47.332;9.404;2022-09-29T03:12:28;91281.09;;;18.89;46.84
65376;BME280;51976;47.332;9.404;2022-09-29T03:14:54;91274.47;;;18.86;46.63
65376;BME280;51976;47.332;9.404;2022-09-29T03:17:19;91269.78;;;18.87;46.75
65376;BME280;51976;47.332;9.404;2022-09-29T03:19:44;91277.97;;;18.87;46.81
65376;BME280;51976;47.332;9.404;2022-09-29T03:22:10;91272.53;;;18.87;46.91
65376;BME280;51976;47.332;9.404;2022-09-29T03:24:35;91270.56;;;18.87;46.47
65376;BME280;51976;47.332;9.404;2022-09-29T03:27:01;91277.19;;;18.86;46.49
65376;BME280;51976;47.332;9.404;2022-09-29T03:29:27;91274.47;;;18.86;46.85
65376;BME280;51976;47.332;9.404;2022-09-29T03:31:53;91276.00;;;18.87;46.69
65376;BME280;51976;47.332;9.404;2022-09-29T03:34:18;91279.13;;;18.86;46.54
65376;BME280;51976;47.332;9.404;2022-09-29T03:36:43;91281.09;;;18.85;46.79
65376;BME280;51976;47.332;9.404;2022-09-29T03:39:09;91277.19;;;18.86;46.79
65376;BME280;51976;47.332;9.404;2022-09-29T03:41:35;91274.47;;;18.86;46.52
65376;BME280;51976;47.332;9.404;2022-09-29T03:44:01;91273.69;;;18.86;46.55
65376;BME280;51976;47.332;9.404;2022-09-29T03:46:26;91268.22;;;18.86;46.88
65376;BME280;51976;47.332;9.404;2022-09-29T03:48:52;91272.09;;;18.85;46.57
65376;BME280;51976;47.332;9.404;2022-09-29T03:51:17;91269.38;;;18.85;46.76
65376;BME280;51976;47.332;9.404;2022-09-29T03:53:43;91275.19;;;18.83;46.72
65376;BME280;51976;47.332;9.404;2022-09-29T03:56:08;91274.84;;;18.85;46.71
65376;BME280;51976;47.332;9.404;2022-09-29T03:58:34;91263.50;;;18.83;46.68
65376;BME280;51976;47.332;9.404;2022-09-29T04:00:59;91262.72;;;18.82;46.69
65376;BME280;51976;47.332;9.404;2022-09-29T04:03:26;91268.97;;;18.83;46.54
65376;BME280;51976;47.332;9.404;2022-09-29T04:05:51;91268.97;;;18.83;46.43
65376;BME280;51976;47.332;9.404;2022-09-29T04:08:16;91276.00;;;18.84;46.60
65376;BME280;51976;47.332;9.404;2022-09-29T04:10:45;91275.19;;;18.83;46.85
65376;BME280;51976;47.332;9.404;2022-09-29T04:13:10;91271.31;;;18.84;46.54
65376;BME280;51976;47.332;9.404;2022-09-29T04:15:36;91269.38;;;18.85;46.78
65376;BME280;51976;47.332;9.404;2022-09-29T04:18:02;91267.81;;;18.84;46.60
65376;BME280;51976;47.332;9.404;2022-09-29T04:20:27;91260.31;;;18.77;46.49
65376;BME280;51976;47.332;9.404;2022-09-29T04:22:53;91261.56;;;18.83;46.35
65376;BME280;51976;47.332;9.404;2022-09-29T04:25:18;91262.72;;;18.82;46.63
65376;BME280;51976;47.332;9.404;2022-09-29T04:27:44;91269.75;;;18.83;46.71
65376;BME280;51976;47.332;9.404;2022-09-29T04:30:10;91263.88;;;18.81;46.53
65376;BME280;51976;47.332;9.404;2022-09-29T04:32:35;91261.13;;;18.81;46.48
65376;BME280;51976;47.332;9.404;2022-09-29T04:35:01;91257.25;;;18.82;46.41
65376;BME280;51976;47.332;9.404;2022-09-29T04:37:27;91258.03;;;18.83;46.50
65376;BME280;51976;47.332;9.404;2022-09-29T04:39:52;91260.78;;;18.83;46.59
65376;BME280;51976;47.332;9.404;2022-09-29T04:42:18;91265.81;;;18.81;46.74
65376;BME280;51976;47.332;9.404;2022-09-29T04:44:44;91268.91;;;18.79;46.87
65376;BME280;51976;47.332;9.404;2022-09-29T04:47:10;91261.91;;;18.82;46.62
65376;BME280;51976;47.332;9.404;2022-09-29T04:49:35;91260.34;;;18.81;46.61
65376;BME280;51976;47.332;9.404;2022-09-29T04:52:00;91264.66;;;18.82;46.69
65376;BME280;51976;47.332;9.404;2022-09-29T04:54:32;91274.41;;;18.83;46.59
65376;BME280;51976;47.332;9.404;2022-09-29T04:56:57;91272.06;;;18.81;46.60
65376;BME280;51976;47.332;9.404;2022-09-29T04:59:23;91271.28;;;18.81;46.70
65376;BME280;51976;47.332;9.404;2022-09-29T05:01:49;91259.19;;;18.82;46.54
65376;BME280;51976;47.332;9.404;2022-09-29T05:04:14;91262.72;;;18.82;46.46
65376;BME280;51976;47.332;9.404;2022-09-29T05:06:40;91256.47;;;18.82;46.54
65376;BME280;51976;47.332;9.404;2022-09-29T05:09:05;91265.06;;;18.84;46.24
65376;BME280;51976;47.332;9.404;2022-09-29T05:11:31;91268.59;;;18.88;46.63
65376;BME280;51976;47.332;9.404;2022-09-29T05:13:56;91263.97;;;18.92;46.77
65376;BME280;51976;47.332;9.404;2022-09-29T05:16:23;91268.66;;;18.91;46.42
65376;BME280;51976;47.332;9.404;2022-09-29T05:18:49;91266.38;;;18.97;46.61
65376;BME280;51976;47.332;9.404;2022-09-29T05:21:14;91263.28;;;18.99;46.54
65376;BME280;51976;47.332;9.404;2022-09-29T05:23:40;91269.13;;;18.97;46.43
65376;BME280;51976;47.332;9.404;2022-09-29T05:26:07;91278.47;;;18.96;46.56
65376;BME280;51976;47.332;9.404;2022-09-29T05:28:34;91273.00;;;18.96;46.50
65376;BME280;51976;47.332;9.404;2022-09-29T05:31:02;91270.28;;;18.96;46.46
65376;BME280;51976;47.332;9.404;2022-09-29T05:33:28;91271.44;;;18.95;46.45
65376;BME280;51976;47.332;9.404;2022-09-29T05:35:54;91280.00;;;18.93;46.45
65376;BME280;51976;47.332;9.404;2022-09-29T05:38:19;91280.88;;;19.01;46.54
65376;BME280;51976;47.332;9.404;2022-09-29T05:40:45;91277.72;;;18.99;46.69
65376;BME280;51976;47.332;9.404;2022-09-29T05:43:10;91274.63;;;19.01;46.41
65376;BME280;51976;47.332;9.404;2022-09-29T05:45:35;91280.88;;;19.01;46.61
65376;BME280;51976;47.332;9.404;2022-09-29T05:48:01;91277.81;;;19.06;46.23
65376;BME280;51976;47.332;9.404;2022-09-29T05:50:27;91288.38;;;19.08;46.41
65376;BME280;51976;47.332;9.404;2022-09-29T05:52:52;91281.75;;;19.09;46.45
65376;BME280;51976;47.332;9.404;2022-09-29T05:55:18;91286.81;;;19.07;46.46
65376;BME280;51976;47.332;9.404;2022-09-29T05:57:47;91285.66;;;19.08;46.53
65376;BME280;51976;47.332;9.404;2022-09-29T06:00:13;91288.00;;;19.09;46.42
65376;BME280;51976;47.332;9.404;2022-09-29T06:02:39;91292.69;;;19.09;46.32
65376;BME280;51976;47.332;9.404;2022-09-29T06:05:05;91295.84;;;19.11;46.25
65376;BME280;51976;47.332;9.404;2022-09-29T06:07:30;91295.09;;;19.14;46.32
65376;BME280;51976;47.332;9.404;2022-09-29T06:09:55;91300.56;;;19.14;46.16
65376;BME280;51976;47.332;9.404;2022-09-29T06:12:21;91298.22;;;19.16;46.34
65376;BME280;51976;47.332;9.404;2022-09-29T06:14:46;91302.09;;;19.15;46.27
65376;BME280;51976;47.332;9.404;2022-09-29T06:17:12;91305.25;;;19.17;46.23
65376;BME280;51976;47.332;9.404;2022-09-29T06:19:37;91305.63;;;19.15;46.38
65376;BME280;51976;47.332;9.404;2022-09-29T06:22:02;91309.19;;;19.19;46.34
65376;BME280;51976;47.332;9.404;2022-09-29T06:24:28;91305.66;;;19.19;46.03
65376;BME280;51976;47.332;9.404;2022-09-29T06:26:53;91297.47;;;19.19;46.27
65376;BME280;51976;47.332;9.404;2022-09-29T06:29:18;91299.41;;;19.18;46.34
65376;BME280;51976;47.332;9.404;2022-09-29T06:31:44;91309.59;;;19.21;46.29
65376;BME280;51976;47.332;9.404;2022-09-29T06:34:10;91307.69;;;19.25;46.15
65376;BME280;51976;47.332;9.404;2022-09-29T06:36:42;91308.47;;;19.26;46.15
65376;BME280;51976;47.332;9.404;2022-09-29T06:39:28;91303.03;;;19.26;46.38
65376;BME280;51976;47.332;9.404;2022-09-29T06:41:54;91306.13;;;19.24;46.48
65376;BME280;51976;47.332;9.404;2022-09-29T06:44:24;91304.97;;;19.25;46.21
65376;BME280;51976;47.332;9.404;2022-09-29T06:46:51;91306.16;;;19.28;46.25
65376;BME280;51976;47.332;9.404;2022-09-29T06:49:17;91308.53;;;19.30;46.36
65376;BME280;51976;47.332;9.404;2022-09-29T06:51:42;91306.97;;;19.28;46.00
65376;BME280;51976;47.332;9.404;2022-09-29T06:54:12;91310.53;;;19.33;46.42
65376;BME280;51976;47.332;9.404;2022-09-29T06:56:38;91309.34;;;19.34;46.15
65376;BME280;51976;47.332;9.404;2022-09-29T06:59:04;91303.47;;;19.32;46.50
65376;BME280;51976;47.332;9.404;2022-09-29T07:01:29;91314.03;;;19.33;46.30
65376;BME280;51976;47.332;9.404;2022-09-29T07:03:55;91307.78;;;19.33;46.22
65376;BME280;51976;47.332;9.404;2022-09-29T07:06:20;91316.41;;;19.35;46.31
65376;BME280;51976;47.332;9.404;2022-09-29T07:08:46;91316.03;;;19.36;46.37
65376;BME280;51976;47.332;9.404;2022-09-29T07:11:11;91319.19;;;19.38;46.17
65376;BME280;51976;47.332;9.404;2022-09-29T07:13:37;91320.34;;;19.37;46.49
65376;BME280;51976;47.332;9.404;2022-09-29T07:16:05;91314.91;;;19.41;46.25
65376;BME280;51976;47.332;9.404;2022-09-29T07:18:37;91309.84;;;19.43;46.43
65376;BME280;51976;47.332;9.404;2022-09-29T07:21:04;91313.34;;;19.43;46.36
65376;BME280;51976;47.332;9.404;2022-09-29T07:23:30;91310.25;;;19.45;46.22
65376;BME280;51976;47.332;9.404;2022-09-29T07:25:55;91314.56;;;19.46;46.68
65376;BME280;51976;47.332;9.404;2022-09-29T07:28:21;91312.97;;;19.45;46.44
65376;BME280;51976;47.332;9.404;2022-09-29T07:30:46;91315.34;;;19.46;46.44
65376;BME280;51976;47.332;9.404;2022-09-29T07:33:12;91324.31;;;19.47;46.34
65376;BME280;51976;47.332;9.404;2022-09-29T07:35:37;91318.94;;;19.50;46.33
65376;BME280;51976;47.332;9.404;2022-09-29T07:38:02;91326.31;;;19.50;46.44
65376;BME280;51976;47.332;9.404;2022-09-29T07:40:28;91321.31;;;19.52;46.40
65376;BME280;51976;47.332;9.404;2022-09-29T07:42:53;91325.59;;;19.53;46.83
65376;BME280;51976;47.332;9.404;2022-09-29T07:45:19;91330.66;;;19.51;46.74
65376;BME280;51976;47.332;9.404;2022-09-29T07:47:44;91333.81;;;19.53;46.70
65376;BME280;51976;47.332;9.404;2022-09-29T07:50:10;91334.59;;;19.53;46.96
65376;BME280;51976;47.332;9.404;2022-09-29T07:52:36;91336.56;;;19.56;46.73
65376;BME280;51976;47.332;9.404;2022-09-29T07:55:03;91340.88;;;19.57;46.56
65376;BME280;51976;47.332;9.404;2022-09-29T07:57:28;91339.31;;;19.56;46.59
65376;BME280;51976;47.332;9.404;2022-09-29T07:59:54;91335.41;;;19.57;46.70
65376;BME280;51976;47.332;9.404;2022-09-29T08:02:22;91344.41;;;19.58;46.56
65376;BME280;51976;47.332;9.404;2022-09-29T08:04:47;91345.97;;;19.59;46.58
65376;BME280;51976;47.332;9.404;2022-09-29T08:07:12;91349.50;;;19.59;46.85
65376;BME280;51976;47.332;9.404;2022-09-29T08:09:38;91356.53;;;19.60;46.47
65376;BME280;51976;47.332;9.404;2022-09-29T08:12:03;91347.94;;;19.58;46.69
65376;BME280;51976;47.332;9.404;2022-09-29T08:14:28;91345.59;;;19.60;47.11
65376;BME280;51976;47.332;9.404;2022-09-29T08:16:54;91352.25;;;19.59;46.97
65376;BME280;51976;47.332;9.404;2022-09-29T08:19:19;91354.59;;;19.61;46.61
65376;BME280;51976;47.332;9.404;2022-09-29T08:21:45;91366.69;;;19.60;47.01
65376;BME280;51976;47.332;9.404;2022-09-29T08:24:14;91360.81;;;19.58;46.99
65376;BME280;51976;47.332;9.404;2022-09-29T08:26:40;91362.38;;;19.59;46.95
65376;BME280;51976;47.332;9.404;2022-09-29T08:29:06;91367.47;;;19.60;46.95
65376;BME280;51976;47.332;9.404;2022-09-29T08:31:31;91379.19;;;19.61;47.00
65376;BME280;51976;47.332;9.404;2022-09-29T08:33:57;91380.34;;;19.60;47.02
65376;BME280;51976;47.332;9.404;2022-09-29T08:36:23;91383.50;;;19.62;46.90
65376;BME280;51976;47.332;9.404;2022-09-29T08:38:50;91377.25;;;19.62;46.80
65376;BME280;51976;47.332;9.404;2022-09-29T08:41:36;91376.06;;;19.59;46.94
65376;BME280;51976;47.332;9.404;2022-09-29T08:44:11;91382.34;;;19.63;46.84
65376;BME280;51976;47.332;9.404;2022-09-29T08:46:45;91383.50;;;19.62;47.12
65376;BME280;51976;47.332;9.404;2022-09-29T08:49:18;91390.13;;;19.61;47.16
65376;BME280;51976;47.332;9.404;2022-09-29T08:51:50;91387.03;;;19.63;46.80
65376;BME280;51976;47.332;9.404;2022-09-29T08:54:29;91393.66;;;19.62;46.95
65376;BME280;51976;47.332;9.404;2022-09-29T08:56:56;91393.28;;;19.63;47.14
65376;BME280;51976;47.332;9.404;2022-09-29T08:59:22;91398.75;;;19.63;46.94
65376;BME280;51976;47.332;9.404;2022-09-29T09:02:28;91394.84;;;19.64;46.95
65376;BME280;51976;47.332;9.404;2022-09-29T09:05:23;91401.47;;;19.63;47.18
65376;BME280;51976;47.332;9.404;2022-09-29T09:08:13;91399.16;;;19.65;46.98
65376;BME280;51976;47.332;9.404;2022-09-29T09:11:10;91403.47;;;19.66;47.13
65376;BME280;51976;47.332;9.404;2022-09-29T09:14:05;91402.28;;;19.64;47.06
65376;BME280;51976;47.332;9.404;2022-09-29T09:16:53;91406.22;;;19.66;47.19
65376;BME280;51976;47.332;9.404;2022-09-29T09:19:52;91405.84;;;19.68;47.01
65376;BME280;51976;47.332;9.404;2022-09-29T09:25:20;91414.41;;;19.66;46.92
65376;BME280;51976;47.332;9.404;2022-09-29T09:27:55;91415.19;;;19.67;47.10
65376;BME280;51976;47.332;9.404;2022-09-29T09:30:25;91406.22;;;19.66;47.26
65376;BME280;51976;47.332;9.404;2022-09-29T09:32:58;91410.53;;;19.67;46.93
65376;BME280;51976;47.332;9.404;2022-09-29T09:35:43;91412.06;;;19.65;46.90
65376;BME280;51976;47.332;9.404;2022-09-29T09:38:20;91408.16;;;19.66;46.94
65376;BME280;51976;47.332;9.404;2022-09-29T09:40:54;91399.59;;;19.67;46.94
65376;BME280;51976;47.332;9.404;2022-09-29T09:43:33;91408.97;;;19.70;46.97
65376;BME280;51976;47.332;9.404;2022-09-29T09:46:12;91408.97;;;19.70;46.94
65376;BME280;51976;47.332;9.404;2022-09-29T09:48:59;91403.91;;;19.68;47.09
65376;BME280;51976;47.332;9.404;2022-09-29T09:51:49;91410.53;;;19.67;47.00
65376;BME280;51976;47.332;9.404;2022-09-29T09:54:27;91409.75;;;19.70;47.11
65376;BME280;51976;47.332;9.404;2022-09-29T09:57:14;91408.97;;;19.70;47.05
65376;BME280;51976;47.332;9.404;2022-09-29T10:00:07;91412.47;;;19.70;47.08
65376;BME280;51976;47.332;9.404;2022-09-29T10:02:40;91415.22;;;19.70;46.90
65376;BME280;51976;47.332;9.404;2022-09-29T10:05:10;91414.84;;;19.72;46.81
65376;BME280;51976;47.332;9.404;2022-09-29T10:07:37;91412.47;;;19.70;46.91
65376;BME280;51976;47.332;9.404;2022-09-29T10:10:05;91416.00;;;19.71;46.95
65376;BME280;51976;47.332;9.404;2022-09-29T10:12:37;91418.00;;;19.74;47.08
65376;BME280;51976;47.332;9.404;2022-09-29T10:15:10;91423.03;;;19.72;47.00
65376;BME280;51976;47.332;9.404;2022-09-29T10:17:41;91424.22;;;19.71;47.06
65376;BME280;51976;47.332;9.404;2022-09-29T10:20:08;91426.56;;;19.72;47.06
65376;BME280;51976;47.332;9.404;2022-09-29T10:22:34;91424.25;;;19.74;47.05
65376;BME280;51976;47.332;9.404;2022-09-29T10:25:16;91425.00;;;19.71;46.86
65376;BME280;51976;47.332;9.404;2022-09-29T10:27:46;91424.63;;;19.73;46.90
65376;BME280;51976;47.332;9.404;2022-09-29T10:30:18;91429.31;;;19.72;47.15
65376;BME280;51976;47.332;9.404;2022-09-29T10:32:44;91426.97;;;19.74;46.75
65376;BME280;51976;47.332;9.404;2022-09-29T10:35:22;91434.41;;;19.74;46.76
65376;BME280;51976;47.332;9.404;2022-09-29T10:37:59;91409.28;;;19.61;47.02
65376;BME280;51976;47.332;9.404;2022-09-29T10:40:26;91434.03;;;19.75;46.85
65376;BME280;51976;47.332;9.404;2022-09-29T10:42:52;91440.34;;;19.79;46.67
65376;BME280;51976;47.332;9.404;2022-09-29T10:45:22;91433.66;;;19.77;46.72
65376;BME280;51976;47.332;9.404;2022-09-29T10:48:10;91434.03;;;19.75;46.84
65376;BME280;51976;47.332;9.404;2022-09-29T10:50:59;91434.03;;;19.75;46.85
65376;BME280;51976;47.332;9.404;2022-09-29T10:53:36;91431.72;;;19.77;46.75
65376;BME280;51976;47.332;9.404;2022-09-29T10:56:18;91432.13;;;19.79;46.78
65376;BME280;51976;47.332;9.404;2022-09-29T10:58:53;91436.81;;;19.79;46.97
65376;BME280;51976;47.332;9.404;2022-09-29T11:01:20;91433.66;;;19.77;47.02
65376;BME280;51976;47.332;9.404;2022-09-29T11:03:58;91434.44;;;19.77;46.95
65376;BME280;51976;47.332;9.404;2022-09-29T11:06:30;91439.13;;;19.77;46.84
65376;BME280;51976;47.332;9.404;2022-09-29T11:09:05;91436.38;;;19.77;47.05
65376;BME280;51976;47.332;9.404;2022-09-29T11:11:38;91439.97;;;19.81;46.81
65376;BME280;51976;47.332;9.404;2022-09-29T11:14:04;91442.31;;;19.82;46.94
65376;BME280;51976;47.332;9.404;2022-09-29T11:16:36;91445.00;;;19.79;46.69
65376;BME280;51976;47.332;9.404;2022-09-29T11:19:08;91451.28;;;19.79;46.86
65376;BME280;51976;47.332;9.404;2022-09-29T11:22:06;91447.00;;;19.82;46.99
65376;BME280;51976;47.332;9.404;2022-09-29T11:24:55;91445.06;;;19.82;46.80
65376;BME280;51976;47.332;9.404;2022-09-29T11:30:20;91441.50;;;19.78;46.74
65376;BME280;51976;47.332;9.404;2022-09-29T11:36:03;91442.66;;;19.77;46.97
65376;BME280;51976;47.332;9.404;2022-09-29T11:39:20;91461.47;;;19.82;46.74
65376;BME280;51976;47.332;9.404;2022-09-29T11:41:49;91453.69;;;19.84;46.60
65376;BME280;51976;47.332;9.404;2022-09-29T11:44:48;91459.16;;;19.84;46.77
65376;BME280;51976;47.332;9.404;2022-09-29T11:47:33;91452.09;;;19.83;46.73
65376;BME280;51976;47.332;9.404;2022-09-29T11:50:28;91460.69;;;19.82;46.71
65376;BME280;51976;47.332;9.404;2022-09-29T11:53:17;91463.47;;;19.85;46.63
65376;BME280;51976;47.332;9.404;2022-09-29T11:56:18;91460.41;;;19.90;46.74
65376;BME280;51976;47.332;9.404;2022-09-29T11:59:14;91467.44;;;19.91;46.88
65376;BME280;51976;47.332;9.404;2022-09-29T12:01:53;91465.13;;;19.93;46.77
65376;BME280;51976;47.332;9.404;2022-09-29T12:04:31;91461.22;;;19.94;47.01
65376;BME280;51976;47.332;9.404;2022-09-29T12:07:26;91458.91;;;19.97;47.37
65376;BME280;51976;47.332;9.404;2022-09-29T12:10:15;91461.66;;;19.97;47.14
65376;BME280;51976;47.332;9.404;2022-09-29T12:12:54;91455.00;;;19.98;47.45
65376;BME280;51976;47.332;9.404;2022-09-29T12:18:31;91456.19;;;19.97;47.57
65376;BME280;51976;47.332;9.404;2022-09-29T12:21:00;91460.47;;;19.98;47.94
65376;BME280;51976;47.332;9.404;2022-09-29T12:23:28;91452.25;;;19.98;47.80
65376;BME280;51976;47.332;9.404;2022-09-29T12:26:07;91458.50;;;19.98;48.06
65376;BME280;51976;47.332;9.404;2022-09-29T12:28:55;91453.03;;;19.98;48.13
65376;BME280;51976;47.332;9.404;2022-09-29T12:31:26;91456.94;;;19.97;47.85
65376;BME280;51976;47.332;9.404;2022-09-29T12:33:57;91451.88;;;19.96;47.96
65376;BME280;51976;47.332;9.404;2022-09-29T12:36:50;91457.72;;;19.98;47.94
65376;BME280;51976;47.332;9.404;2022-09-29T12:39:45;91455.78;;;19.98;47.79
65376;BME280;51976;47.332;9.404;2022-09-29T12:42:47;91461.66;;;19.97;48.08
65376;BME280;51976;47.332;9.404;2022-09-29T12:45:40;91458.13;;;19.96;47.99
65376;BME280;51976;47.332;9.404;2022-09-29T12:48:37;91448.72;;;19.93;47.83
65376;BME280;51976;47.332;9.404;2022-09-29T12:51:12;91456.91;;;19.93;47.83
65376;BME280;51976;47.332;9.404;2022-09-29T12:53:53;91454.56;;;19.92;48.04
65376;BME280;51976;47.332;9.404;2022-09-29T12:56:29;91458.09;;;19.92;47.99
65376;BME280;51976;47.332;9.404;2022-09-29T12:59:06;91458.09;;;19.92;48.20
65376;BME280;51976;47.332;9.404;2022-09-29T13:01:35;91456.91;;;19.93;47.80
65376;BME280;51976;47.332;9.404;2022-09-29T13:04:31;91470.22;;;19.95;48.06
65376;BME280;51976;47.332;9.404;2022-09-29T13:07:28;91466.69;;;19.94;47.82
65376;BME280;51976;47.332;9.404;2022-09-29T13:10:26;91462.75;;;19.92;48.03
65376;BME280;51976;47.332;9.404;2022-09-29T13:13:29;91467.06;;;19.93;47.83
65376;BME280;51976;47.332;9.404;2022-09-29T13:16:31;91467.06;;;19.93;47.26
65376;BME280;51976;47.332;9.404;2022-09-29T13:20:02;91458.50;;;19.94;47.26
65376;BME280;51976;47.332;9.404;2022-09-29T13:22:58;91463.19;;;19.94;47.37
65376;BME280;51976;47.332;9.404;2022-09-29T13:25:21;91455.75;;;19.94;46.97
65376;BME280;51976;47.332;9.404;2022-09-29T13:27:50;91470.25;;;19.99;46.97
65376;BME280;51976;47.332;9.404;2022-09-29T13:30:21;91467.91;;;20.01;46.61
65376;BME280;51976;47.332;9.404;2022-09-29T13:33:09;91471.06;;;20.03;46.81
65376;BME280;51976;47.332;9.404;2022-09-29T13:35:40;91463.59;;;20.00;46.57
65376;BME280;51976;47.332;9.404;2022-09-29T13:38:13;91457.78;;;20.01;46.50
65376;BME280;51976;47.332;9.404;2022-09-29T13:41:12;91467.56;;;20.02;46.52
65376;BME280;51976;47.332;9.404;2022-09-29T13:44:02;91469.13;;;20.03;46.52